createdAt,value
2018-04-24T00:00:55.607Z,0.00
2018-04-24T00:01:55.854Z,0.00
2018-04-24T00:02:56.088Z,0.00
2018-04-24T00:03:56.332Z,0.00
2018-04-24T00:04:56.569Z,0.00
2018-04-24T00:05:56.809Z,0.00
2018-04-24T00:06:57.049Z,0.00
2018-04-24T00:07:57.286Z,0.00
2018-04-24T00:08:57.525Z,0.00
2018-04-24T00:09:57.763Z,0.00
2018-04-24T00:10:58.007Z,0.00
2018-04-24T00:11:58.245Z,0.00
2018-04-24T00:12:58.487Z,0.00
2018-04-24T00:13:58.729Z,0.00
2018-04-24T00:14:58.967Z,0.00
2018-04-24T00:15:59.207Z,0.00
2018-04-24T00:16:59.448Z,0.00
2018-04-24T00:17:59.687Z,0.00
2018-04-24T00:18:59.925Z,0.00
2018-04-24T00:20:00.164Z,0.00
2018-04-24T00:21:00.403Z,0.00
2018-04-24T00:22:00.643Z,0.00
2018-04-24T00:23:00.881Z,0.00
2018-04-24T00:24:01.120Z,0.00
2018-04-24T00:25:01.368Z,0.00
2018-04-24T00:26:01.682Z,0.00
2018-04-24T00:27:01.840Z,0.00
2018-04-24T00:28:02.078Z,0.00
2018-04-24T00:29:02.320Z,0.00
2018-04-24T00:30:02.559Z,0.00
2018-04-24T00:31:02.797Z,0.00
2018-04-24T00:32:03.036Z,0.00
2018-04-24T00:33:03.277Z,0.00
2018-04-24T00:34:03.517Z,0.00
2018-04-24T00:35:03.756Z,0.00
2018-04-24T00:36:03.995Z,0.00
2018-04-24T00:37:04.235Z,0.00
2018-04-24T00:38:04.475Z,0.00
2018-04-24T00:39:04.715Z,0.00
2018-04-24T00:40:04.955Z,0.00
2018-04-24T00:41:05.194Z,0.00
2018-04-24T00:42:05.440Z,0.00
2018-04-24T00:43:05.674Z,0.00
2018-04-24T00:44:05.913Z,0.00
2018-04-24T00:45:06.149Z,0.00
2018-04-24T00:46:06.389Z,0.00
2018-04-24T00:47:06.626Z,0.00
2018-04-24T00:48:06.867Z,0.00
2018-04-24T00:49:07.104Z,0.00
2018-04-24T00:50:07.343Z,0.00
2018-04-24T00:51:07.581Z,0.00
2018-04-24T00:52:07.819Z,0.00
2018-04-24T00:53:08.059Z,0.00
2018-04-24T00:54:08.298Z,0.00
2018-04-24T00:55:08.537Z,0.00
2018-04-24T00:56:08.776Z,0.00
2018-04-24T00:57:09.017Z,0.00
2018-04-24T00:58:09.254Z,0.00
2018-04-24T00:59:09.494Z,0.00
2018-04-24T01:00:09.734Z,0.00
2018-04-24T01:01:09.971Z,0.00
2018-04-24T01:02:10.213Z,0.00
2018-04-24T01:03:10.453Z,0.00
2018-04-24T01:04:10.694Z,0.00
2018-04-24T01:05:10.932Z,0.00
2018-04-24T01:06:11.171Z,0.00
2018-04-24T01:07:11.410Z,0.00
2018-04-24T01:08:11.648Z,0.00
2018-04-24T01:09:11.891Z,0.00
2018-04-24T01:10:12.127Z,0.00
2018-04-24T01:11:12.366Z,0.00
2018-04-24T01:12:12.606Z,0.00
2018-04-24T01:13:12.843Z,0.00
2018-04-24T01:14:13.081Z,0.00
2018-04-24T01:15:13.319Z,0.00
2018-04-24T01:16:13.559Z,0.00
2018-04-24T01:17:13.796Z,0.00
2018-04-24T01:18:14.036Z,0.00
2018-04-24T01:19:14.271Z,0.00
2018-04-24T01:20:14.512Z,0.00
2018-04-24T01:21:14.752Z,0.00
2018-04-24T01:22:14.994Z,0.00
2018-04-24T01:23:15.231Z,0.00
2018-04-24T01:24:15.471Z,0.00
2018-04-24T01:25:15.709Z,0.00
2018-04-24T01:26:15.946Z,0.00
2018-04-24T01:27:16.185Z,0.00
2018-04-24T01:28:16.425Z,0.00
2018-04-24T01:29:16.663Z,0.00
2018-04-24T01:30:16.901Z,0.00
2018-04-24T01:31:17.141Z,0.00
2018-04-24T01:32:17.380Z,0.00
2018-04-24T01:33:17.620Z,0.00
2018-04-24T01:34:17.859Z,0.00
2018-04-24T01:35:18.097Z,0.00
2018-04-24T01:36:18.337Z,0.00
2018-04-24T01:37:18.575Z,0.00
2018-04-24T01:38:18.816Z,0.00
2018-04-24T01:39:19.051Z,0.00
2018-04-24T01:40:19.291Z,0.00
2018-04-24T01:41:19.528Z,0.00
2018-04-24T01:42:19.769Z,0.00
2018-04-24T01:43:20.008Z,0.00
2018-04-24T01:44:20.245Z,0.00
2018-04-24T01:45:20.486Z,0.00
2018-04-24T01:46:20.721Z,0.00
2018-04-24T01:47:20.962Z,0.00
2018-04-24T01:48:21.200Z,0.00
2018-04-24T01:49:21.438Z,0.00
2018-04-24T01:50:21.676Z,0.00
2018-04-24T01:51:21.913Z,0.00
2018-04-24T01:52:22.155Z,0.00
2018-04-24T01:53:22.394Z,0.00
2018-04-24T01:54:22.634Z,0.00
2018-04-24T01:55:22.874Z,0.00
2018-04-24T01:56:23.111Z,0.00
2018-04-24T01:57:23.350Z,0.00
2018-04-24T01:58:23.589Z,0.00
2018-04-24T01:59:23.827Z,0.00
2018-04-24T02:00:24.067Z,0.00
2018-04-24T02:01:24.307Z,0.00
2018-04-24T02:02:24.546Z,0.00
2018-04-24T02:03:24.784Z,0.00
2018-04-24T02:04:25.021Z,0.00
2018-04-24T02:05:25.261Z,0.00
2018-04-24T02:06:25.500Z,0.00
2018-04-24T02:07:25.740Z,0.00
2018-04-24T02:08:25.977Z,0.00
2018-04-24T02:09:26.213Z,0.00
2018-04-24T02:10:26.455Z,0.00
2018-04-24T02:11:26.693Z,0.00
2018-04-24T02:12:26.935Z,0.00
2018-04-24T02:13:27.170Z,0.00
2018-04-24T02:14:27.410Z,0.00
2018-04-24T02:15:27.651Z,0.00
2018-04-24T02:16:27.888Z,0.00
2018-04-24T02:17:28.127Z,0.00
2018-04-24T02:18:28.364Z,0.00
2018-04-24T02:19:28.605Z,0.00
2018-04-24T02:20:28.844Z,0.00
2018-04-24T02:21:29.088Z,0.00
2018-04-24T02:22:29.324Z,0.00
2018-04-24T02:23:29.561Z,0.00
2018-04-24T02:24:29.853Z,0.00
2018-04-24T02:25:30.041Z,0.00
2018-04-24T02:26:30.279Z,0.00
2018-04-24T02:27:30.515Z,0.00
2018-04-24T02:28:30.756Z,0.00
2018-04-24T02:29:30.995Z,0.00
2018-04-24T02:30:31.234Z,0.00
2018-04-24T02:31:31.471Z,0.00
2018-04-24T02:32:31.710Z,0.00
2018-04-24T02:33:31.951Z,0.00
2018-04-24T02:34:32.185Z,0.00
2018-04-24T02:35:32.425Z,0.00
2018-04-24T02:36:32.665Z,0.00
2018-04-24T02:37:32.900Z,0.00
2018-04-24T02:38:33.140Z,0.00
2018-04-24T02:39:33.379Z,0.00
2018-04-24T02:40:33.619Z,0.00
2018-04-24T02:41:33.856Z,0.00
2018-04-24T02:42:34.095Z,0.00
2018-04-24T02:43:34.333Z,0.00
2018-04-24T02:44:34.570Z,0.00
2018-04-24T02:45:34.810Z,0.00
2018-04-24T02:46:35.050Z,0.00
2018-04-24T02:47:35.294Z,0.00
2018-04-24T02:48:35.527Z,0.00
2018-04-24T02:49:35.768Z,0.00
2018-04-24T02:50:36.007Z,0.00
2018-04-24T02:51:36.246Z,0.00
2018-04-24T02:52:36.486Z,0.00
2018-04-24T02:53:36.730Z,0.00
2018-04-24T02:54:36.962Z,0.00
2018-04-24T02:55:37.201Z,0.00
2018-04-24T02:56:37.440Z,0.00
2018-04-24T02:57:37.678Z,0.00
2018-04-24T02:58:37.916Z,0.00
2018-04-24T02:59:38.155Z,0.00
2018-04-24T03:00:38.396Z,0.00
2018-04-24T03:01:38.637Z,0.00
2018-04-24T03:02:38.873Z,0.00
2018-04-24T03:03:39.115Z,0.00
2018-04-24T03:04:39.356Z,0.00
2018-04-24T03:05:39.597Z,0.00
2018-04-24T03:06:39.833Z,0.00
2018-04-24T03:07:40.071Z,0.00
2018-04-24T03:08:40.306Z,0.00
2018-04-24T03:09:40.541Z,0.00
2018-04-24T03:10:40.784Z,0.00
2018-04-24T03:11:41.020Z,0.00
2018-04-24T03:12:41.259Z,0.00
2018-04-24T03:13:41.500Z,0.00
2018-04-24T03:14:41.738Z,0.00
2018-04-24T03:15:41.976Z,0.00
2018-04-24T03:16:42.216Z,0.00
2018-04-24T03:17:42.457Z,0.00
2018-04-24T03:18:42.697Z,0.00
2018-04-24T03:19:42.931Z,0.00
2018-04-24T03:20:43.172Z,0.00
2018-04-24T03:21:43.409Z,0.00
2018-04-24T03:22:43.646Z,0.00
2018-04-24T03:23:43.884Z,0.00
2018-04-24T03:24:44.124Z,0.00
2018-04-24T03:25:44.363Z,0.00
2018-04-24T03:26:44.604Z,0.00
2018-04-24T03:27:44.840Z,0.00
2018-04-24T03:28:45.091Z,0.00
2018-04-24T03:29:45.324Z,0.00
2018-04-24T03:30:45.563Z,0.00
2018-04-24T03:31:45.802Z,0.00
2018-04-24T03:32:46.086Z,0.00
2018-04-24T03:33:46.279Z,0.00
2018-04-24T03:34:46.519Z,0.00
2018-04-24T03:35:46.756Z,0.00
2018-04-24T03:36:47.000Z,0.00
2018-04-24T03:37:47.233Z,0.00
2018-04-24T03:38:47.470Z,0.00
2018-04-24T03:39:47.711Z,0.00
2018-04-24T03:40:47.949Z,0.00
2018-04-24T03:41:48.188Z,0.00
2018-04-24T03:42:48.429Z,0.00
2018-04-24T03:43:48.666Z,0.00
2018-04-24T03:44:48.903Z,0.00
2018-04-24T03:45:49.145Z,0.00
2018-04-24T03:46:49.381Z,0.00
2018-04-24T03:47:49.618Z,0.00
2018-04-24T03:48:49.858Z,0.00
2018-04-24T03:49:50.096Z,0.00
2018-04-24T03:50:50.335Z,0.00
2018-04-24T03:51:50.573Z,0.00
2018-04-24T03:52:50.813Z,0.00
2018-04-24T03:53:51.053Z,0.00
2018-04-24T03:54:51.292Z,0.00
2018-04-24T03:55:51.535Z,0.00
2018-04-24T03:56:51.771Z,0.00
2018-04-24T03:57:52.011Z,0.00
2018-04-24T03:58:52.248Z,0.00
2018-04-24T03:59:52.569Z,0.00
2018-04-24T04:00:52.727Z,5.63
2018-04-24T04:01:52.965Z,5.63
2018-04-24T04:02:53.205Z,5.63
2018-04-24T04:03:53.441Z,5.63
2018-04-24T04:04:53.678Z,5.63
2018-04-24T04:05:53.918Z,5.63
2018-04-24T04:06:54.158Z,5.63
2018-04-24T04:07:54.396Z,11.25
2018-04-24T04:08:54.635Z,11.25
2018-04-24T04:09:54.875Z,11.25
2018-04-24T04:10:55.121Z,11.25
2018-04-24T04:11:55.351Z,11.25
2018-04-24T04:12:55.589Z,16.88
2018-04-24T04:13:55.828Z,16.88
2018-04-24T04:14:56.067Z,16.88
2018-04-24T04:15:56.346Z,22.50
2018-04-24T04:16:56.545Z,22.50
2018-04-24T04:17:56.785Z,22.50
2018-04-24T04:18:57.023Z,28.13
2018-04-24T04:19:57.261Z,28.13
2018-04-24T04:20:57.500Z,28.13
2018-04-24T04:21:57.742Z,33.75
2018-04-24T04:22:57.975Z,33.75
2018-04-24T04:23:58.216Z,39.38
2018-04-24T04:24:58.453Z,39.38
2018-04-24T04:25:58.691Z,39.38
2018-04-24T04:26:58.947Z,45.00
2018-04-24T04:27:59.186Z,45.00
2018-04-24T04:28:59.425Z,45.00
2018-04-24T04:29:59.662Z,50.63
2018-04-24T04:30:59.901Z,50.63
2018-04-24T04:32:00.138Z,56.25
2018-04-24T04:33:00.451Z,56.25
2018-04-24T04:34:00.616Z,56.25
2018-04-24T04:35:00.862Z,61.88
2018-04-24T04:36:01.093Z,61.88
2018-04-24T04:37:01.332Z,67.50
2018-04-24T04:38:01.571Z,67.50
2018-04-24T04:39:01.809Z,73.13
2018-04-24T04:40:02.051Z,78.75
2018-04-24T04:41:02.289Z,78.75
2018-04-24T04:42:02.528Z,84.38
2018-04-24T04:43:02.768Z,84.38
2018-04-24T04:44:03.006Z,84.38
2018-04-24T04:45:03.245Z,84.38
2018-04-24T04:46:03.489Z,90.00
2018-04-24T04:47:03.725Z,90.00
2018-04-24T04:48:03.963Z,90.00
2018-04-24T04:49:04.201Z,90.00
2018-04-24T04:50:04.445Z,90.00
2018-04-24T04:51:04.679Z,90.00
2018-04-24T04:52:04.919Z,90.00
2018-04-24T04:53:05.162Z,90.00
2018-04-24T04:54:05.402Z,95.63
2018-04-24T04:55:05.637Z,95.63
2018-04-24T04:56:05.884Z,95.63
2018-04-24T04:57:06.113Z,101.25
2018-04-24T04:58:06.352Z,101.25
2018-04-24T04:59:06.591Z,106.88
2018-04-24T05:00:06.833Z,106.88
2018-04-24T05:01:07.073Z,112.50
2018-04-24T05:02:07.307Z,112.50
2018-04-24T05:03:07.547Z,112.50
2018-04-24T05:04:07.785Z,118.13
2018-04-24T05:05:08.081Z,123.75
2018-04-24T05:06:08.268Z,123.75
2018-04-24T05:07:08.501Z,129.38
2018-04-24T05:08:08.740Z,129.38
2018-04-24T05:09:08.982Z,135.00
2018-04-24T05:10:09.224Z,140.63
2018-04-24T05:11:09.461Z,140.63
2018-04-24T05:12:09.841Z,140.63
2018-04-24T05:13:09.934Z,146.25
2018-04-24T05:14:10.172Z,146.25
2018-04-24T05:15:10.410Z,151.88
2018-04-24T05:16:10.649Z,157.50
2018-04-24T05:17:10.887Z,163.13
2018-04-24T05:18:11.126Z,163.13
2018-04-24T05:19:11.370Z,157.50
2018-04-24T05:20:11.640Z,157.50
2018-04-24T05:21:11.846Z,163.13
2018-04-24T05:22:12.085Z,168.75
2018-04-24T05:23:12.327Z,168.75
2018-04-24T05:24:12.564Z,168.75
2018-04-24T05:25:12.805Z,168.75
2018-04-24T05:26:13.045Z,168.75
2018-04-24T05:27:13.285Z,174.38
2018-04-24T05:28:13.524Z,174.38
2018-04-24T05:29:13.766Z,180.00
2018-04-24T05:30:14.001Z,185.63
2018-04-24T05:31:14.240Z,196.88
2018-04-24T05:32:14.480Z,208.13
2018-04-24T05:33:14.716Z,196.88
2018-04-24T05:34:14.955Z,202.50
2018-04-24T05:35:15.195Z,208.13
2018-04-24T05:36:15.434Z,213.75
2018-04-24T05:37:15.672Z,213.75
2018-04-24T05:38:15.913Z,219.38
2018-04-24T05:39:16.151Z,230.63
2018-04-24T05:40:16.390Z,225.00
2018-04-24T05:41:16.629Z,219.38
2018-04-24T05:42:16.869Z,219.38
2018-04-24T05:43:17.110Z,219.38
2018-04-24T05:44:17.349Z,225.00
2018-04-24T05:45:17.622Z,230.63
2018-04-24T05:46:17.829Z,230.63
2018-04-24T05:47:18.069Z,236.25
2018-04-24T05:48:18.310Z,247.50
2018-04-24T05:49:18.550Z,270.00
2018-04-24T05:50:18.788Z,281.25
2018-04-24T05:51:19.029Z,264.38
2018-04-24T05:52:19.335Z,281.25
2018-04-24T05:53:19.509Z,286.88
2018-04-24T05:54:19.746Z,292.50
2018-04-24T05:55:19.991Z,292.50
2018-04-24T05:56:20.226Z,286.88
2018-04-24T05:57:20.467Z,286.88
2018-04-24T05:58:20.707Z,286.88
2018-04-24T05:59:20.947Z,292.50
2018-04-24T06:00:21.187Z,292.50
2018-04-24T06:01:21.428Z,292.50
2018-04-24T06:02:21.667Z,292.50
2018-04-24T06:03:21.907Z,292.50
2018-04-24T06:04:22.145Z,292.50
2018-04-24T06:05:22.386Z,292.50
2018-04-24T06:06:22.626Z,298.13
2018-04-24T06:07:22.865Z,298.13
2018-04-24T06:08:23.192Z,298.13
2018-04-24T06:09:23.347Z,303.75
2018-04-24T06:10:23.588Z,315.00
2018-04-24T06:11:23.827Z,315.00
2018-04-24T06:12:24.069Z,320.63
2018-04-24T06:13:24.308Z,326.25
2018-04-24T06:14:24.547Z,337.50
2018-04-24T06:15:24.789Z,331.88
2018-04-24T06:16:25.036Z,331.88
2018-04-24T06:17:25.272Z,343.13
2018-04-24T06:18:25.513Z,343.13
2018-04-24T06:19:25.753Z,343.13
2018-04-24T06:20:25.995Z,337.50
2018-04-24T06:21:26.236Z,343.13
2018-04-24T06:22:26.550Z,354.38
2018-04-24T06:23:26.714Z,360.00
2018-04-24T06:24:26.955Z,360.00
2018-04-24T06:25:27.193Z,360.00
2018-04-24T06:26:27.434Z,365.63
2018-04-24T06:27:27.675Z,371.25
2018-04-24T06:28:27.934Z,371.25
2018-04-24T06:29:28.155Z,382.50
2018-04-24T06:30:28.395Z,388.13
2018-04-24T06:31:28.635Z,399.38
2018-04-24T06:32:28.875Z,399.38
2018-04-24T06:33:29.116Z,405.00
2018-04-24T06:34:29.356Z,410.63
2018-04-24T06:35:29.600Z,421.88
2018-04-24T06:36:29.837Z,416.25
2018-04-24T06:37:30.080Z,427.50
2018-04-24T06:38:30.320Z,444.38
2018-04-24T06:39:30.559Z,483.75
2018-04-24T06:40:30.800Z,517.50
2018-04-24T06:41:31.042Z,540.00
2018-04-24T06:42:31.281Z,523.13
2018-04-24T06:43:31.524Z,511.88
2018-04-24T06:44:31.768Z,534.38
2018-04-24T06:45:32.007Z,545.63
2018-04-24T06:46:32.247Z,528.75
2018-04-24T06:47:32.486Z,523.13
2018-04-24T06:48:32.728Z,517.50
2018-04-24T06:49:32.971Z,506.25
2018-04-24T06:50:33.212Z,500.63
2018-04-24T06:51:33.455Z,500.63
2018-04-24T06:52:33.699Z,500.63
2018-04-24T06:53:33.937Z,511.88
2018-04-24T06:54:34.182Z,500.63
2018-04-24T06:55:34.424Z,500.63
2018-04-24T06:56:34.672Z,495.00
2018-04-24T06:57:34.910Z,500.63
2018-04-24T06:58:35.153Z,500.63
2018-04-24T06:59:35.409Z,500.63
2018-04-24T07:00:35.702Z,495.00
2018-04-24T07:01:35.884Z,489.38
2018-04-24T07:02:36.122Z,478.13
2018-04-24T07:03:36.365Z,478.13
2018-04-24T07:04:36.607Z,472.50
2018-04-24T07:05:36.851Z,472.50
2018-04-24T07:06:37.094Z,472.50
2018-04-24T07:07:37.344Z,478.13
2018-04-24T07:08:37.581Z,489.38
2018-04-24T07:09:37.828Z,495.00
2018-04-24T07:10:38.068Z,506.25
2018-04-24T07:11:38.317Z,511.88
2018-04-24T07:12:38.568Z,511.88
2018-04-24T07:13:38.801Z,528.75
2018-04-24T07:14:39.042Z,545.63
2018-04-24T07:15:39.283Z,562.50
2018-04-24T07:16:39.529Z,585.00
2018-04-24T07:17:39.772Z,568.13
2018-04-24T07:18:40.014Z,596.25
2018-04-24T07:19:40.269Z,601.88
2018-04-24T07:20:40.503Z,630.00
2018-04-24T07:21:40.746Z,635.63
2018-04-24T07:22:40.990Z,607.50
2018-04-24T07:23:41.235Z,624.38
2018-04-24T07:24:41.478Z,641.25
2018-04-24T07:25:41.725Z,652.50
2018-04-24T07:26:41.967Z,646.88
2018-04-24T07:27:42.212Z,568.13
2018-04-24T07:28:42.461Z,624.38
2018-04-24T07:29:42.700Z,641.25
2018-04-24T07:30:42.944Z,652.50
2018-04-24T07:31:43.189Z,658.13
2018-04-24T07:32:43.433Z,680.63
2018-04-24T07:33:43.677Z,691.88
2018-04-24T07:34:43.926Z,725.63
2018-04-24T07:35:44.166Z,691.88
2018-04-24T07:36:44.410Z,714.38
2018-04-24T07:37:44.653Z,810.00
2018-04-24T07:38:44.898Z,877.50
2018-04-24T07:39:45.142Z,888.75
2018-04-24T07:40:45.391Z,956.25
2018-04-24T07:41:45.634Z,978.75
2018-04-24T07:42:45.887Z,995.63
2018-04-24T07:43:46.123Z,978.75
2018-04-24T07:44:46.366Z,995.63
2018-04-24T07:45:46.611Z,1080.00
2018-04-24T07:46:46.947Z,686.25
2018-04-24T07:47:47.100Z,1113.75
2018-04-24T07:48:47.344Z,1153.13
2018-04-24T07:49:47.590Z,1119.38
2018-04-24T07:50:47.836Z,1119.38
2018-04-24T07:51:48.083Z,1029.38
2018-04-24T07:52:48.325Z,1136.25
2018-04-24T07:53:48.571Z,1170.00
2018-04-24T07:54:48.817Z,1158.75
2018-04-24T07:55:49.068Z,1153.13
2018-04-24T07:56:49.325Z,1215.00
2018-04-24T07:57:49.580Z,1035.00
2018-04-24T07:58:49.833Z,1203.75
2018-04-24T07:59:50.051Z,1192.50
2018-04-24T08:00:50.299Z,765.00
2018-04-24T08:01:50.547Z,1119.38
2018-04-24T08:02:50.795Z,1108.13
2018-04-24T08:03:51.044Z,1018.13
2018-04-24T08:04:51.290Z,1102.50
2018-04-24T08:05:51.553Z,1237.50
2018-04-24T08:06:51.800Z,1271.25
2018-04-24T08:07:52.047Z,1243.13
2018-04-24T08:08:52.295Z,950.63
2018-04-24T08:09:52.539Z,1074.38
2018-04-24T08:10:52.787Z,1091.25
2018-04-24T08:11:53.043Z,1029.38
2018-04-24T08:12:53.285Z,1068.75
2018-04-24T08:13:53.529Z,1085.63
2018-04-24T08:14:53.775Z,1080.00
2018-04-24T08:15:54.021Z,1023.75
2018-04-24T08:16:54.265Z,990.00
2018-04-24T08:17:54.514Z,973.13
2018-04-24T08:18:54.761Z,945.00
2018-04-24T08:19:55.006Z,900.00
2018-04-24T08:20:55.261Z,911.25
2018-04-24T08:21:55.491Z,916.88
2018-04-24T08:22:55.748Z,973.13
2018-04-24T08:23:55.984Z,967.50
2018-04-24T08:24:56.230Z,995.63
2018-04-24T08:25:56.477Z,871.88
2018-04-24T08:26:56.726Z,1006.88
2018-04-24T08:27:56.972Z,978.75
2018-04-24T08:28:57.219Z,933.75
2018-04-24T08:29:57.468Z,1023.75
2018-04-24T08:30:57.919Z,1068.75
2018-04-24T08:31:58.016Z,1040.63
2018-04-24T08:32:58.266Z,1136.25
2018-04-24T08:33:58.515Z,1068.75
2018-04-24T08:34:58.765Z,1074.38
2018-04-24T08:35:59.015Z,1046.25
2018-04-24T08:36:59.265Z,1029.38
2018-04-24T08:37:59.516Z,1006.88
2018-04-24T08:38:59.768Z,990.00
2018-04-24T08:40:00.091Z,990.00
2018-04-24T08:41:00.257Z,1018.13
2018-04-24T08:42:00.508Z,984.38
2018-04-24T08:43:00.760Z,990.00
2018-04-24T08:44:01.003Z,950.63
2018-04-24T08:45:01.252Z,950.63
2018-04-24T08:46:01.500Z,967.50
2018-04-24T08:47:01.748Z,956.25
2018-04-24T08:48:01.997Z,928.13
2018-04-24T08:49:02.253Z,900.00
2018-04-24T08:50:02.493Z,916.88
2018-04-24T08:51:02.745Z,905.63
2018-04-24T08:52:02.992Z,939.38
2018-04-24T08:53:03.241Z,995.63
2018-04-24T08:54:03.509Z,1029.38
2018-04-24T08:55:03.742Z,1040.63
2018-04-24T08:56:03.986Z,1040.63
2018-04-24T08:57:04.233Z,1096.88
2018-04-24T08:58:04.481Z,1068.75
2018-04-24T08:59:04.731Z,1074.38
2018-04-24T09:00:04.979Z,1046.25
2018-04-24T09:01:05.229Z,1029.38
2018-04-24T09:02:05.544Z,1023.75
2018-04-24T09:03:05.727Z,1040.63
2018-04-24T09:04:05.977Z,1040.63
2018-04-24T09:05:06.225Z,1018.13
2018-04-24T09:06:06.473Z,990.00
2018-04-24T09:07:06.721Z,956.25
2018-04-24T09:08:06.972Z,928.13
2018-04-24T09:09:07.737Z,916.88
2018-04-24T09:10:07.803Z,939.38
2018-04-24T09:11:07.847Z,984.38
2018-04-24T09:12:08.092Z,984.38
2018-04-24T09:13:08.342Z,1006.88
2018-04-24T09:14:08.621Z,978.75
2018-04-24T09:15:08.842Z,1125.00
2018-04-24T09:16:09.088Z,1175.63
2018-04-24T09:17:09.338Z,1226.25
2018-04-24T09:18:09.584Z,1209.38
2018-04-24T09:19:09.836Z,1141.88
2018-04-24T09:20:10.084Z,1125.00
2018-04-24T09:21:10.334Z,1074.38
2018-04-24T09:22:10.587Z,1102.50
2018-04-24T09:23:10.834Z,973.13
2018-04-24T09:24:11.086Z,905.63
2018-04-24T09:25:11.331Z,1029.38
2018-04-24T09:26:11.581Z,1074.38
2018-04-24T09:27:11.879Z,1125.00
2018-04-24T09:28:12.079Z,1063.13
2018-04-24T09:29:12.337Z,1141.88
2018-04-24T09:30:12.582Z,1153.13
2018-04-24T09:31:12.831Z,961.88
2018-04-24T09:32:13.080Z,1096.88
2018-04-24T09:33:13.330Z,1125.00
2018-04-24T09:34:13.581Z,1091.25
2018-04-24T09:35:13.837Z,1046.25
2018-04-24T09:36:14.079Z,1068.75
2018-04-24T09:37:14.332Z,1108.13
2018-04-24T09:38:14.582Z,1141.88
2018-04-24T09:39:14.835Z,1136.25
2018-04-24T09:40:15.084Z,1181.25
2018-04-24T09:41:15.333Z,1186.88
2018-04-24T09:42:15.587Z,1265.63
2018-04-24T09:43:15.837Z,1327.50
2018-04-24T09:44:16.091Z,1715.63
2018-04-24T09:45:16.343Z,2385.00
2018-04-24T09:46:16.594Z,2621.25
2018-04-24T09:47:16.843Z,2750.63
2018-04-24T09:48:17.092Z,2745.00
2018-04-24T09:49:17.347Z,2480.63
2018-04-24T09:50:17.599Z,2767.50
2018-04-24T09:51:17.867Z,2688.75
2018-04-24T09:52:18.101Z,2964.38
2018-04-24T09:53:18.351Z,2840.63
2018-04-24T09:54:18.607Z,2992.50
2018-04-24T09:55:18.856Z,2936.25
2018-04-24T09:56:19.110Z,3088.13
2018-04-24T09:57:19.361Z,3245.63
2018-04-24T09:58:19.613Z,3217.50
2018-04-24T09:59:19.867Z,2790.00
2018-04-24T10:00:20.118Z,1861.88
2018-04-24T10:01:20.373Z,2694.38
2018-04-24T10:02:20.708Z,2750.63
2018-04-24T10:03:20.881Z,2441.25
2018-04-24T10:04:21.136Z,1946.25
2018-04-24T10:05:21.387Z,1788.75
2018-04-24T10:06:21.642Z,1918.13
2018-04-24T10:07:21.892Z,2250.00
2018-04-24T10:08:22.146Z,2486.25
2018-04-24T10:09:22.401Z,2638.13
2018-04-24T10:10:22.660Z,2941.88
2018-04-24T10:11:22.907Z,2795.63
2018-04-24T10:12:23.165Z,2767.50
2018-04-24T10:13:23.495Z,2559.38
2018-04-24T10:14:23.670Z,2863.13
2018-04-24T10:15:23.924Z,2604.38
2018-04-24T10:16:24.179Z,2508.75
2018-04-24T10:17:24.436Z,2238.75
2018-04-24T10:18:24.683Z,3150.00
2018-04-24T10:19:24.940Z,2508.75
2018-04-24T10:20:25.194Z,2520.00
2018-04-24T10:21:25.447Z,2565.00
2018-04-24T10:22:25.699Z,2525.63
2018-04-24T10:23:25.953Z,2593.13
2018-04-24T10:24:26.209Z,2941.88
2018-04-24T10:25:26.459Z,2958.75
2018-04-24T10:26:26.714Z,3161.25
2018-04-24T10:27:26.971Z,3268.13
2018-04-24T10:28:27.226Z,3363.75
2018-04-24T10:29:27.470Z,3206.25
2018-04-24T10:30:27.768Z,2941.88
2018-04-24T10:31:27.979Z,2885.63
2018-04-24T10:32:28.231Z,2520.00
2018-04-24T10:33:28.485Z,2863.13
2018-04-24T10:34:28.738Z,3031.88
2018-04-24T10:35:28.991Z,3138.75
2018-04-24T10:36:29.247Z,3155.63
2018-04-24T10:37:29.555Z,2700.00
2018-04-24T10:38:29.750Z,2435.63
2018-04-24T10:39:30.008Z,2221.88
2018-04-24T10:40:30.258Z,2818.13
2018-04-24T10:41:30.512Z,2407.50
2018-04-24T10:42:30.769Z,2019.38
2018-04-24T10:43:31.023Z,4010.63
2018-04-24T10:44:31.278Z,3538.13
2018-04-24T10:45:31.532Z,3656.25
2018-04-24T10:46:31.787Z,3633.75
2018-04-24T10:47:32.038Z,3183.75
2018-04-24T10:48:32.292Z,2452.50
2018-04-24T10:49:32.547Z,3566.25
2018-04-24T10:50:32.799Z,2233.13
2018-04-24T10:51:33.131Z,3678.75
2018-04-24T10:52:33.312Z,2880.00
2018-04-24T10:53:33.635Z,1659.38
2018-04-24T10:54:33.904Z,1530.00
2018-04-24T10:55:34.060Z,1507.50
2018-04-24T10:56:34.315Z,1417.50
2018-04-24T10:57:34.567Z,1535.63
2018-04-24T10:58:34.820Z,1344.38
2018-04-24T10:59:35.076Z,1350.00
2018-04-24T11:00:35.410Z,1378.13
2018-04-24T11:01:35.583Z,1890.00
2018-04-24T11:02:35.837Z,1395.00
2018-04-24T11:03:36.091Z,1260.00
2018-04-24T11:04:36.344Z,1181.25
2018-04-24T11:05:36.598Z,1130.63
2018-04-24T11:06:36.865Z,1108.13
2018-04-24T11:07:37.104Z,1074.38
2018-04-24T11:08:37.355Z,1035.00
2018-04-24T11:09:37.605Z,973.13
2018-04-24T11:10:37.856Z,916.88
2018-04-24T11:11:38.179Z,888.75
2018-04-24T11:12:38.365Z,894.38
2018-04-24T11:13:38.616Z,922.50
2018-04-24T11:14:38.867Z,933.75
2018-04-24T11:15:39.116Z,916.88
2018-04-24T11:16:39.366Z,877.50
2018-04-24T11:17:39.613Z,821.25
2018-04-24T11:18:39.860Z,770.63
2018-04-24T11:19:40.110Z,736.88
2018-04-24T11:20:40.363Z,720.00
2018-04-24T11:21:40.612Z,691.88
2018-04-24T11:22:40.864Z,652.50
2018-04-24T11:23:41.132Z,624.38
2018-04-24T11:24:41.352Z,624.38
2018-04-24T11:25:41.603Z,630.00
2018-04-24T11:26:41.872Z,641.25
2018-04-24T11:27:42.104Z,663.75
2018-04-24T11:28:42.334Z,680.63
2018-04-24T11:29:42.585Z,691.88
2018-04-24T11:30:42.835Z,720.00
2018-04-24T11:31:43.080Z,759.38
2018-04-24T11:32:43.329Z,804.38
2018-04-24T11:33:43.578Z,860.63
2018-04-24T11:34:43.826Z,905.63
2018-04-24T11:35:44.073Z,939.38
2018-04-24T11:36:44.336Z,961.88
2018-04-24T11:37:44.570Z,973.13
2018-04-24T11:38:44.815Z,1001.25
2018-04-24T11:39:45.066Z,1029.38
2018-04-24T11:40:45.312Z,1096.88
2018-04-24T11:41:45.561Z,1170.00
2018-04-24T11:42:45.809Z,1215.00
2018-04-24T11:43:46.092Z,1096.88
2018-04-24T11:44:46.305Z,1068.75
2018-04-24T11:45:46.554Z,1125.00
2018-04-24T11:46:46.807Z,1288.13
2018-04-24T11:47:47.059Z,1485.00
2018-04-24T11:48:47.304Z,1243.13
2018-04-24T11:49:47.552Z,1051.88
2018-04-24T11:50:47.803Z,922.50
2018-04-24T11:51:48.048Z,770.63
2018-04-24T11:52:48.293Z,652.50
2018-04-24T11:53:48.543Z,579.38
2018-04-24T11:54:48.793Z,534.38
2018-04-24T11:55:49.042Z,523.13
2018-04-24T11:56:49.293Z,523.13
2018-04-24T11:57:49.539Z,511.88
2018-04-24T11:58:49.782Z,511.88
2018-04-24T11:59:50.038Z,500.63
2018-04-24T12:00:50.285Z,495.00
2018-04-24T12:01:50.533Z,483.75
2018-04-24T12:02:50.775Z,478.13
2018-04-24T12:03:51.026Z,483.75
2018-04-24T12:04:51.273Z,478.13
2018-04-24T12:05:51.521Z,478.13
2018-04-24T12:06:51.770Z,489.38
2018-04-24T12:07:52.017Z,495.00
2018-04-24T12:08:52.270Z,500.63
2018-04-24T12:09:52.592Z,495.00
2018-04-24T12:10:52.763Z,489.38
2018-04-24T12:11:53.011Z,461.25
2018-04-24T12:12:53.256Z,450.00
2018-04-24T12:13:53.500Z,450.00
2018-04-24T12:14:53.749Z,450.00
2018-04-24T12:15:53.996Z,455.63
2018-04-24T12:16:54.244Z,461.25
2018-04-24T12:17:54.494Z,466.88
2018-04-24T12:18:54.745Z,461.25
2018-04-24T12:19:54.995Z,450.00
2018-04-24T12:20:55.228Z,438.75
2018-04-24T12:21:55.471Z,421.88
2018-04-24T12:22:55.729Z,410.63
2018-04-24T12:23:55.971Z,421.88
2018-04-24T12:24:56.219Z,433.13
2018-04-24T12:25:56.473Z,427.50
2018-04-24T12:26:56.729Z,421.88
2018-04-24T12:27:56.976Z,405.00
2018-04-24T12:28:57.203Z,371.25
2018-04-24T12:29:57.443Z,343.13
2018-04-24T12:30:57.730Z,331.88
2018-04-24T12:31:57.963Z,331.88
2018-04-24T12:32:58.214Z,354.38
2018-04-24T12:33:58.443Z,376.88
2018-04-24T12:34:58.712Z,405.00
2018-04-24T12:35:58.951Z,433.13
2018-04-24T12:36:59.196Z,455.63
2018-04-24T12:37:59.437Z,466.88
2018-04-24T12:38:59.682Z,461.25
2018-04-24T12:39:59.932Z,444.38
2018-04-24T12:41:00.182Z,438.75
2018-04-24T12:42:00.424Z,444.38
2018-04-24T12:43:00.664Z,455.63